createdAt,value
2018-06-16T00:02:34.871Z,19.30
2018-06-16T00:07:37.148Z,19.29
2018-06-16T00:12:39.646Z,19.39
2018-06-16T00:18:03.140Z,19.35
2018-06-16T00:41:59.336Z,19.51
2018-06-16T00:47:26.901Z,19.49
2018-06-16T03:49:34.255Z,19.23
2018-06-16T11:07:07.667Z,22.73
2018-06-16T11:12:09.849Z,22.23
2018-06-16T11:17:12.045Z,21.57
2018-06-16T11:22:14.233Z,21.08
2018-06-16T11:27:16.397Z,21.08
2018-06-16T11:32:18.550Z,21.04
2018-06-16T11:37:20.772Z,21.23
2018-06-16T11:42:23.075Z,21.27
2018-06-16T11:47:25.285Z,21.66
2018-06-16T11:52:27.444Z,22.03
2018-06-16T11:57:29.636Z,22.22
2018-06-16T12:02:31.814Z,22.41
2018-06-16T12:07:34.001Z,22.70
2018-06-16T12:12:37.098Z,22.80
2018-06-16T12:17:39.767Z,22.92
2018-06-16T12:22:41.921Z,22.94
2018-06-16T12:27:44.112Z,23.35
2018-06-16T12:32:47.264Z,23.29
2018-06-16T12:37:49.540Z,23.20
2018-06-16T12:42:51.770Z,23.06
2018-06-16T12:47:53.972Z,23.01
2018-06-16T12:52:56.176Z,23.14
2018-06-16T13:03:07.337Z,23.16
2018-06-16T13:08:09.516Z,23.22
2018-06-16T13:13:11.699Z,23.41
2018-06-16T13:18:13.891Z,23.44
2018-06-16T13:23:16.085Z,23.45
2018-06-16T13:28:18.266Z,23.48
2018-06-16T13:33:20.477Z,23.58
2018-06-16T13:38:22.667Z,23.59
2018-06-16T13:43:24.847Z,23.49
2018-06-16T13:48:27.060Z,23.28
2018-06-16T13:53:29.241Z,22.95
2018-06-16T13:58:31.441Z,22.82
2018-06-16T14:03:33.668Z,22.81
2018-06-16T14:08:35.894Z,23.43
2018-06-16T14:13:38.131Z,24.53
2018-06-16T14:18:40.299Z,24.49
2018-06-16T14:23:42.528Z,24.90
2018-06-16T14:28:44.722Z,25.94
2018-06-16T14:33:46.914Z,26.21
2018-06-16T14:38:49.122Z,27.06
2018-06-16T14:43:51.675Z,26.50
2018-06-16T14:48:53.863Z,26.98
2018-06-16T14:53:56.073Z,26.54
2018-06-16T14:59:04.972Z,26.62
2018-06-16T15:04:07.196Z,25.97
2018-06-16T15:09:10.395Z,26.28
2018-06-16T15:14:12.546Z,26.57
2018-06-16T15:19:14.756Z,26.47
2018-06-16T15:24:16.968Z,25.75
2018-06-16T15:29:20.117Z,25.14
2018-06-16T15:34:22.252Z,24.73
2018-06-16T15:39:24.511Z,24.53
2018-06-16T15:44:26.717Z,24.17
2018-06-16T15:49:28.893Z,23.65
2018-06-16T15:54:31.084Z,22.66
2018-06-16T15:59:33.284Z,21.75
2018-06-16T16:04:35.548Z,21.23
2018-06-16T16:09:37.787Z,21.36
2018-06-16T16:14:40.006Z,21.57
2018-06-16T16:19:42.175Z,21.53
2018-06-16T16:24:44.438Z,21.63
2018-06-16T16:29:46.632Z,21.83
2018-06-16T16:34:48.813Z,22.23
2018-06-16T16:39:51.005Z,22.76
2018-06-16T16:44:53.175Z,23.04
2018-06-16T16:49:55.370Z,23.18
2018-06-16T16:54:57.621Z,23.09
2018-06-16T16:59:59.793Z,23.02
2018-06-16T17:05:02.037Z,23.01
2018-06-16T17:10:04.526Z,23.08
2018-06-16T17:15:06.736Z,22.94
2018-06-16T17:20:08.927Z,22.89
2018-06-16T17:25:11.158Z,22.79
2018-06-16T17:30:13.367Z,22.79
2018-06-16T17:35:15.597Z,22.92
2018-06-16T17:40:17.793Z,23.13
2018-06-16T17:45:20.061Z,23.08
2018-06-16T17:50:22.258Z,22.92
2018-06-16T17:55:24.466Z,22.58
2018-06-16T18:00:26.678Z,22.48
2018-06-16T18:05:28.923Z,22.36
2018-06-16T18:10:31.137Z,22.15
2018-06-16T18:15:33.359Z,22.18
2018-06-16T18:20:35.604Z,22.09
2018-06-16T18:25:37.832Z,21.99
2018-06-16T18:30:40.044Z,21.94
2018-06-16T18:35:42.247Z,21.84
2018-06-16T18:40:44.485Z,21.78
2018-06-16T18:45:46.697Z,21.72
2018-06-16T18:50:48.969Z,21.65
2018-06-16T18:55:51.185Z,21.51
2018-06-16T19:00:53.417Z,21.43
2018-06-16T19:05:55.635Z,21.40
2018-06-16T19:10:57.897Z,21.28
2018-06-16T19:16:00.026Z,21.28
2018-06-16T19:21:02.169Z,21.30
2018-06-16T19:26:04.564Z,21.28
2018-06-16T19:31:06.754Z,21.21
2018-06-16T19:36:08.988Z,21.14
2018-06-16T19:41:11.267Z,21.12
2018-06-16T19:46:13.495Z,21.09
2018-06-16T19:51:15.690Z,21.40
2018-06-16T19:56:17.887Z,21.63
2018-06-16T20:01:20.111Z,21.73
2018-06-16T20:06:22.421Z,21.87
2018-06-16T20:11:24.632Z,21.93
2018-06-16T20:16:26.888Z,21.94
2018-06-16T20:21:29.093Z,21.90
2018-06-16T20:26:33.934Z,21.88
2018-06-16T20:31:36.110Z,21.84
2018-06-16T20:36:38.790Z,21.80
2018-06-16T20:41:40.971Z,21.79
2018-06-16T20:46:43.212Z,21.80
2018-06-16T20:51:45.381Z,21.75
2018-06-16T20:56:47.871Z,21.59
2018-06-16T21:01:50.108Z,21.09
2018-06-16T21:06:52.325Z,20.67
2018-06-16T21:11:54.528Z,20.38
2018-06-16T21:16:56.728Z,20.18
2018-06-16T21:21:58.932Z,20.10
2018-06-16T21:32:10.041Z,19.90
2018-06-16T21:37:12.280Z,19.84
2018-06-16T21:42:14.524Z,19.78
2018-06-16T21:47:16.748Z,19.74
2018-06-16T21:52:18.917Z,19.50
2018-06-16T21:57:21.089Z,19.51
2018-06-16T22:02:23.349Z,19.49
2018-06-16T22:07:25.545Z,19.46
2018-06-16T22:12:27.762Z,19.50
2018-06-16T22:17:30.002Z,19.45
2018-06-16T22:22:32.184Z,19.42
2018-06-16T22:27:34.389Z,19.30
2018-06-16T22:32:36.546Z,19.31
2018-06-16T22:37:38.737Z,19.35
2018-06-16T22:42:41.117Z,19.28
2018-06-16T22:47:43.478Z,19.32
2018-06-16T22:52:45.652Z,19.27
2018-06-16T22:57:47.847Z,19.26
2018-06-16T23:02:50.093Z,19.22
2018-06-16T23:07:52.995Z,19.18
2018-06-16T23:12:55.236Z,19.09
2018-06-16T23:17:57.441Z,19.06
2018-06-16T23:22:59.635Z,19.00
2018-06-16T23:28:01.806Z,18.99
2018-06-16T23:33:04.033Z,18.80
2018-06-16T23:38:06.281Z,18.84
2018-06-16T23:43:08.824Z,18.99
2018-06-16T23:48:11.413Z,18.86
2018-06-16T23:53:13.799Z,18.93
2018-06-16T23:58:16.189Z,18.94
